createdAt,value
2022-09-24T00:04:46.002Z,0
2022-09-24T00:09:43.216Z,0
2022-09-24T00:14:43.385Z,0
2022-09-24T00:19:41.956Z,0
2022-09-24T00:24:41.702Z,0
2022-09-24T00:29:39.589Z,0
2022-09-24T00:34:39.489Z,0
2022-09-24T00:39:39.062Z,0
2022-09-24T00:44:39.036Z,0
2022-09-24T00:49:37.532Z,0
2022-09-24T00:54:37.244Z,0
2022-09-24T00:58:54.119Z,0
2022-09-24T01:03:53.744Z,0
2022-09-24T01:08:54.631Z,0
2022-09-24T01:13:51.324Z,0
2022-09-24T01:18:51.885Z,0
2022-09-24T01:23:51.756Z,0
2022-09-24T01:28:51.250Z,0
2022-09-24T01:33:50.054Z,0
2022-09-24T01:38:50.224Z,0
2022-09-24T01:43:49.329Z,0
2022-09-24T01:48:50.129Z,0
2022-09-24T01:53:47.162Z,0
2022-09-24T01:58:52.481Z,0
2022-09-24T02:03:45.949Z,0
2022-09-24T02:08:45.916Z,0
2022-09-24T02:13:43.992Z,0
2022-09-24T02:18:44.287Z,0
2022-09-24T02:23:43.525Z,0
2022-09-24T02:28:42.936Z,0
2022-09-24T02:33:42.199Z,0
2022-09-24T02:38:41.716Z,0
2022-09-24T02:43:42.071Z,0
2022-09-24T02:48:41.764Z,0
2022-09-24T02:53:41.544Z,0
2022-09-24T02:58:38.834Z,0
2022-09-24T03:03:38.301Z,0
2022-09-24T03:08:38.580Z,0
2022-09-24T03:13:37.796Z,0
2022-09-24T03:18:37.114Z,0
2022-09-24T03:23:37.508Z,0
2022-09-24T03:28:36.460Z,0
2022-09-24T03:33:36.869Z,0
2022-09-24T03:38:34.295Z,0
2022-09-24T03:43:34.055Z,0
2022-09-24T03:48:33.201Z,0
2022-09-24T03:53:32.894Z,0
2022-09-24T03:58:31.280Z,0
2022-09-24T03:59:51.862Z,0
2022-09-24T04:04:52.327Z,0
2022-09-24T04:09:51.258Z,0
2022-09-24T04:14:50.529Z,0
2022-09-24T04:19:50.192Z,0
2022-09-24T04:24:49.674Z,0
2022-09-24T04:29:48.473Z,0
2022-09-24T04:34:49.555Z,0
2022-09-24T04:39:46.605Z,0
2022-09-24T04:44:46.606Z,0
2022-09-24T04:49:45.341Z,0
2022-09-24T04:54:45.039Z,0
2022-09-24T04:59:23.309Z,0
2022-09-24T05:04:23.079Z,0
2022-09-24T05:09:24.633Z,0
2022-09-24T05:14:09.964Z,0
2022-09-24T05:19:09.886Z,0
2022-09-24T05:24:08.716Z,0
2022-09-24T05:29:08.726Z,0
2022-09-24T05:34:06.423Z,0
2022-09-24T05:39:06.390Z,0
2022-09-24T05:44:06.012Z,0
2022-09-24T05:49:05.681Z,0
2022-09-24T05:54:05.191Z,0.01
2022-09-24T05:58:53.244Z,0.01
2022-09-24T06:03:52.659Z,0.01
2022-09-24T06:08:52.051Z,0.02
2022-09-24T06:13:52.590Z,0.02
2022-09-24T06:18:50.438Z,0.02
2022-09-24T06:23:50.048Z,0.02
2022-09-24T06:28:48.899Z,0.02
2022-09-24T06:33:47.777Z,0.03
2022-09-24T06:38:47.126Z,0.03
2022-09-24T06:43:47.210Z,0.04
2022-09-24T06:48:47.135Z,0.04
2022-09-24T06:53:47.176Z,0.04
2022-09-24T06:58:44.718Z,0.04
2022-09-24T07:03:44.543Z,0.05
2022-09-24T07:08:44.975Z,0.05
2022-09-24T07:13:44.282Z,0.05
2022-09-24T07:18:42.531Z,0.05
2022-09-24T07:23:42.032Z,0.05
2022-09-24T07:28:41.966Z,0.06
2022-09-24T07:33:41.319Z,0.09
2022-09-24T07:38:40.540Z,0.05
2022-09-24T07:43:39.904Z,0.08
2022-09-24T07:48:40.268Z,0.09
2022-09-24T07:53:39.146Z,0.07
2022-09-24T07:58:40.211Z,0.07
2022-09-24T08:00:00.235Z,0.06
2022-09-24T08:05:00.537Z,0.06
2022-09-24T08:09:59.581Z,0.07
2022-09-24T08:14:59.294Z,0.09
2022-09-24T08:19:58.314Z,0.11
2022-09-24T08:24:58.708Z,0.13
2022-09-24T08:29:57.840Z,0.16
2022-09-24T08:34:58.757Z,0.16
2022-09-24T08:39:55.968Z,0.17
2022-09-24T08:44:56.142Z,0.14
2022-09-24T08:49:55.964Z,0.14
2022-09-24T08:54:55.635Z,0.16
2022-09-24T08:58:57.987Z,0.17
2022-09-24T09:03:57.904Z,0.12
2022-09-24T09:09:10.109Z,0.09
2022-09-24T09:13:56.978Z,0.12
2022-09-24T09:18:56.461Z,0.15
2022-09-24T09:23:55.824Z,0.17
2022-09-24T09:28:55.608Z,0.22
2022-09-24T09:33:54.912Z,0.21
2022-09-24T09:38:53.295Z,0.22
2022-09-24T09:43:53.333Z,0.21
2022-09-24T09:48:52.698Z,0.13
2022-09-24T09:53:52.794Z,0.1
2022-09-24T09:58:52.009Z,0.06
2022-09-24T10:03:51.159Z,0.06
2022-09-24T10:08:50.675Z,0.08
2022-09-24T10:13:50.190Z,0.11
2022-09-24T10:18:51.592Z,0.15
2022-09-24T10:23:48.310Z,0.22
2022-09-24T10:28:48.238Z,0.19
2022-09-24T10:33:47.963Z,0.18
2022-09-24T10:38:47.969Z,0.13
2022-09-24T10:43:46.362Z,0.13
2022-09-24T10:48:46.393Z,0.15
2022-09-24T10:53:45.178Z,0.16
2022-09-24T10:58:45.071Z,0.17
2022-09-24T11:03:44.023Z,0.23
2022-09-24T11:08:44.077Z,0.18
2022-09-24T11:13:51.335Z,0.14
2022-09-24T11:18:43.553Z,0.15
2022-09-24T11:23:42.101Z,0.19
2022-09-24T11:28:41.751Z,0.24
2022-09-24T11:33:41.894Z,0.28
2022-09-24T11:38:41.544Z,0.25
2022-09-24T11:43:40.516Z,0.25
2022-09-24T11:48:40.141Z,0.25
2022-09-24T11:53:39.600Z,0.28
2022-09-24T11:58:39.047Z,0.24
2022-09-24T12:00:02.516Z,0.23
2022-09-24T12:04:59.470Z,0.27
2022-09-24T12:09:59.100Z,0.39
2022-09-24T12:14:59.517Z,0.3
2022-09-24T12:19:59.474Z,0.23
2022-09-24T12:24:57.533Z,0.23
2022-09-24T12:29:57.097Z,0.27
2022-09-24T12:34:57.426Z,0.29
2022-09-24T12:39:56.469Z,0.3
2022-09-24T12:44:56.246Z,0.31
2022-09-24T12:49:55.921Z,0.28
2022-09-24T12:54:55.469Z,0.49
2022-09-24T12:59:28.855Z,0.44
2022-09-24T13:04:26.222Z,0.35
2022-09-24T13:09:28.567Z,0.39
2022-09-24T13:14:26.013Z,0.43
2022-09-24T13:19:23.542Z,0.43
2022-09-24T13:24:24.416Z,0.22
2022-09-24T13:29:24.149Z,0.3
2022-09-24T13:34:24.367Z,0.22
2022-09-24T13:39:23.750Z,0.26
2022-09-24T13:44:23.375Z,0.2
2022-09-24T13:49:23.944Z,0.18
2022-09-24T13:55:04.208Z,0.16
2022-09-24T13:58:57.212Z,0.15
2022-09-24T14:03:58.370Z,0.27
2022-09-24T14:08:55.702Z,0.18
2022-09-24T14:13:56.138Z,0.13
2022-09-24T14:18:55.622Z,0.11
2022-09-24T14:23:55.563Z,0.1
2022-09-24T14:28:54.485Z,0.08
2022-09-24T14:33:53.367Z,0.06
2022-09-24T14:38:56.125Z,0.06
2022-09-24T14:43:51.234Z,0.06
2022-09-24T14:48:50.187Z,0.05
2022-09-24T14:53:50.638Z,0.04
2022-09-24T14:58:49.239Z,0.04
2022-09-24T15:03:48.657Z,0.03
2022-09-24T15:08:47.919Z,0.04
2022-09-24T15:13:47.794Z,0.04
2022-09-24T15:18:47.782Z,0.04
2022-09-24T15:23:47.856Z,0.03
2022-09-24T15:28:45.585Z,0.03
2022-09-24T15:33:44.878Z,0.03
2022-09-24T15:38:44.945Z,0.03
2022-09-24T15:43:44.235Z,0.04
2022-09-24T15:48:42.910Z,0.04
2022-09-24T15:53:43.042Z,0.04
2022-09-24T15:58:42.228Z,0.04
2022-09-24T16:03:42.524Z,0.03
2022-09-24T16:08:39.760Z,0.03
2022-09-24T16:13:39.426Z,0.03
2022-09-24T16:18:39.845Z,0.02
2022-09-24T16:23:38.002Z,0.02
2022-09-24T16:28:37.419Z,0.01
2022-09-24T16:33:37.427Z,0.01
2022-09-24T16:38:36.740Z,0.01
2022-09-24T16:43:37.731Z,0.01
2022-09-24T16:48:35.211Z,0
2022-09-24T16:53:34.405Z,0
2022-09-24T16:58:33.675Z,0
2022-09-24T16:59:55.417Z,0
2022-09-24T17:04:54.694Z,0
2022-09-24T17:09:53.207Z,0
2022-09-24T17:14:53.362Z,0
2022-09-24T17:19:52.589Z,0
2022-09-24T17:24:52.030Z,0
2022-09-24T17:29:51.147Z,0
2022-09-24T17:34:51.408Z,0
2022-09-24T17:39:50.104Z,0
2022-09-24T17:44:48.023Z,0
2022-09-24T17:49:47.837Z,0
2022-09-24T17:54:47.791Z,0
2022-09-24T17:59:29.399Z,0
2022-09-24T18:04:11.198Z,0
2022-09-24T18:09:11.465Z,0
2022-09-24T18:14:10.681Z,0
2022-09-24T18:19:09.977Z,0
2022-09-24T18:24:09.208Z,0
2022-09-24T18:29:09.182Z,0
2022-09-24T18:34:08.480Z,0
2022-09-24T18:39:07.919Z,0
2022-09-24T18:44:08.324Z,0
2022-09-24T18:49:05.846Z,0
2022-09-24T18:54:05.766Z,0
2022-09-24T18:58:52.379Z,0
2022-09-24T19:03:51.948Z,0
2022-09-24T19:08:50.136Z,0
2022-09-24T19:13:50.261Z,0
2022-09-24T19:18:49.714Z,0
2022-09-24T19:23:52.340Z,0
2022-09-24T19:28:48.384Z,0
2022-09-24T19:33:48.616Z,0
2022-09-24T19:38:47.511Z,0
2022-09-24T19:43:47.555Z,0
2022-09-24T19:48:45.838Z,0
2022-09-24T19:53:45.223Z,0
2022-09-24T19:58:45.212Z,0
2022-09-24T20:03:44.813Z,0
2022-09-24T20:08:43.862Z,0
2022-09-24T20:13:43.532Z,0
2022-09-24T20:18:43.117Z,0
2022-09-24T20:23:42.529Z,0
2022-09-24T20:28:43.440Z,0
2022-09-24T20:33:40.674Z,0
2022-09-24T20:38:40.756Z,0
2022-09-24T20:43:39.793Z,0
2022-09-24T20:48:39.454Z,0
2022-09-24T20:53:37.295Z,0
2022-09-24T20:58:37.051Z,0
2022-09-24T20:59:59.013Z,0
2022-09-24T21:04:58.986Z,0
2022-09-24T21:09:57.260Z,0
2022-09-24T21:14:55.968Z,0
2022-09-24T21:19:54.778Z,0
2022-09-24T21:24:54.654Z,0
2022-09-24T21:29:53.454Z,0
2022-09-24T21:34:53.295Z,0
2022-09-24T21:39:52.691Z,0
2022-09-24T21:44:53.011Z,0
2022-09-24T21:49:51.404Z,0
2022-09-24T21:54:51.052Z,0
2022-09-24T21:58:58.548Z,0
2022-09-24T22:03:58.159Z,0
2022-09-24T22:08:58.729Z,0
2022-09-24T22:13:56.084Z,0
2022-09-24T22:18:56.125Z,0
2022-09-24T22:23:55.145Z,0
2022-09-24T22:28:55.236Z,0
2022-09-24T22:33:53.596Z,0
2022-09-24T22:38:52.549Z,0
2022-09-24T22:43:51.599Z,0
2022-09-24T22:48:52.620Z,0
2022-09-24T22:53:49.011Z,0
2022-09-24T22:58:49.149Z,0
2022-09-24T23:03:48.125Z,0
2022-09-24T23:08:47.929Z,0
2022-09-24T23:13:46.389Z,0
2022-09-24T23:18:46.210Z,0
2022-09-24T23:23:45.865Z,0
2022-09-24T23:28:45.575Z,0
2022-09-24T23:33:44.787Z,0
2022-09-24T23:38:44.325Z,0
2022-09-24T23:43:44.562Z,0
2022-09-24T23:48:43.624Z,0
2022-09-24T23:53:44.056Z,0
2022-09-24T23:58:41.247Z,0
